Time;durP1;ratioP1;P1;durP2;ratioP2;P2;SDS_P1;SDS_P2;PMS_P1;PMS_P2;Temp;Humidity;BMP_temperature;BMP_pressure;BME280_temperature;BME280_humidity;BME280_pressure;Samples;Min_cycle;Max_cycle;Signal;HPM_P1;HPM_P2
2021/10/06 00:01:12;;;;;;;5.27;4.50;;;;;;;;;;5092907;28;20196;-79
2021/10/06 00:03:40;;;;;;;6.53;4.43;;;;;;;;;;5093146;28;20265;-79
2021/10/06 00:06:07;;;;;;;9.93;4.73;;;;;;;;;;5092459;28;20668;-79
2021/10/06 00:08:34;;;;;;;6.97;4.53;;;;;;;;;;5092847;28;20668;-80
2021/10/06 00:11:01;;;;;;;7.80;4.60;;;;;;;;;;5092618;28;20279;-79
2021/10/06 00:13:29;;;;;;;5.17;4.23;;;;;;;;;;5092881;28;20207;-80
2021/10/06 00:15:57;;;;;;;5.63;4.70;;;;;;;;;;5092636;28;20204;-79
2021/10/06 00:18:25;;;;;;;5.60;4.17;;;;;;;;;;5093078;28;20300;-79
2021/10/06 00:20:52;;;;;;;4.97;4.10;;;;;;;;;;5092527;28;20206;-79
2021/10/06 00:23:19;;;;;;;8.23;4.50;;;;;;;;;;5092576;28;20311;-79
2021/10/06 00:25:47;;;;;;;4.30;3.97;;;;;;;;;;5092740;28;20318;-79
2021/10/06 00:28:14;;;;;;;4.67;4.00;;;;;;;;;;5092221;28;20658;-79
2021/10/06 00:30:41;;;;;;;8.13;4.60;;;;;;;;;;5092483;28;20279;-79
2021/10/06 00:33:09;;;;;;;6.53;4.67;;;;;;;;;;5092673;28;20192;-79
2021/10/06 00:35:37;;;;;;;5.63;3.93;;;;;;;;;;5092226;28;20291;-79
2021/10/06 00:38:04;;;;;;;5.97;4.13;;;;;;;;;;5092042;28;20200;-80
2021/10/06 00:40:31;;;;;;;4.83;4.33;;;;;;;;;;5092071;28;20196;-80
2021/10/06 00:42:58;;;;;;;6.43;5.80;;;;;;;;;;5092020;28;20707;-79
2021/10/06 00:45:26;;;;;;;5.57;5.00;;;;;;;;;;5092403;28;20204;-79
2021/10/06 00:47:53;;;;;;;6.57;5.30;;;;;;;;;;5091945;28;20634;-79
2021/10/06 00:50:22;;;;;;;5.53;4.03;;;;;;;;;;5091992;28;20200;-79
2021/10/06 00:52:49;;;;;;;5.93;4.57;;;;;;;;;;5092482;28;20218;-79
2021/10/06 00:55:17;;;;;;;8.40;4.77;;;;;;;;;;5091905;28;20283;-80
2021/10/06 00:57:44;;;;;;;5.97;4.53;;;;;;;;;;5091982;28;20290;-80
2021/10/06 01:00:13;;;;;;;5.07;4.20;;;;;;;;;;5091804;28;20211;-79
2021/10/06 01:02:40;;;;;;;6.50;4.20;;;;;;;;;;5092384;28;20668;-79
2021/10/06 01:05:09;;;;;;;7.83;4.80;;;;;;;;;;5091776;28;20196;-79
2021/10/06 01:07:39;;;;;;;4.93;4.23;;;;;;;;;;5091515;28;20619;-79
2021/10/06 01:10:07;;;;;;;9.97;7.37;;;;;;;;;;5091460;28;20291;-80
2021/10/06 01:12:34;;;;;;;14.27;9.87;;;;;;;;;;5091970;28;20599;-80
2021/10/06 01:15:03;;;;;;;13.67;8.30;;;;;;;;;;5091667;28;20270;-80
2021/10/06 01:17:31;;;;;;;14.90;8.93;;;;;;;;;;5091723;28;20199;-80
2021/10/06 01:19:58;;;;;;;11.90;7.13;;;;;;;;;;5091637;28;20318;-80
2021/10/06 01:22:27;;;;;;;7.93;5.60;;;;;;;;;;5092129;28;20632;-80
2021/10/06 01:24:54;;;;;;;5.80;5.30;;;;;;;;;;5091586;28;20673;-80
2021/10/06 01:27:21;;;;;;;4.83;4.43;;;;;;;;;;5091971;28;20283;-79
2021/10/06 01:29:48;;;;;;;7.73;5.03;;;;;;;;;;5091674;28;20196;-80
2021/10/06 01:32:17;;;;;;;6.60;5.03;;;;;;;;;;5091819;28;20198;-80
2021/10/06 01:34:45;;;;;;;6.50;5.33;;;;;;;;;;5091565;28;20199;-80
2021/10/06 01:37:12;;;;;;;5.20;4.60;;;;;;;;;;5091747;28;20287;-80
2021/10/06 01:39:40;;;;;;;6.70;5.33;;;;;;;;;;5091220;28;20200;-79
2021/10/06 01:42:07;;;;;;;6.00;5.27;;;;;;;;;;5091706;28;20212;-80
2021/10/06 01:44:35;;;;;;;6.63;4.87;;;;;;;;;;5091281;28;20732;-80
2021/10/06 01:47:02;;;;;;;6.67;4.30;;;;;;;;;;5092016;28;20582;-80
2021/10/06 01:49:29;;;;;;;6.77;4.57;;;;;;;;;;5091100;28;20291;-80
2021/10/06 01:51:56;;;;;;;5.87;4.83;;;;;;;;;;5091958;28;20275;-80
2021/10/06 01:54:23;;;;;;;9.27;5.60;;;;;;;;;;5091561;28;20196;-79
2021/10/06 01:56:52;;;;;;;5.00;4.60;;;;;;;;;;5091642;28;20292;-79
2021/10/06 01:59:19;;;;;;;7.40;4.67;;;;;;;;;;5091339;28;20287;-79
2021/10/06 02:01:46;;;;;;;8.73;5.13;;;;;;;;;;5091442;28;20204;-79
2021/10/06 02:04:14;;;;;;;5.30;4.57;;;;;;;;;;5091201;28;20228;-79
2021/10/06 02:06:41;;;;;;;8.67;5.30;;;;;;;;;;5091351;28;20203;-79
2021/10/06 02:09:09;;;;;;;6.27;4.60;;;;;;;;;;5090944;28;20759;-80
2021/10/06 02:11:38;;;;;;;4.30;3.90;;;;;;;;;;5091741;28;20255;-79
2021/10/06 02:14:07;;;;;;;4.43;4.00;;;;;;;;;;5091525;28;20193;-80
2021/10/06 02:16:34;;;;;;;8.23;4.23;;;;;;;;;;5091390;28;20648;-80
2021/10/06 02:19:01;;;;;;;6.73;3.63;;;;;;;;;;5090931;28;20196;-80
2021/10/06 02:21:28;;;;;;;6.03;4.30;;;;;;;;;;5093355;28;20731;-79
2021/10/06 02:23:55;;;;;;;4.70;4.30;;;;;;;;;;5094713;28;20243;-80
2021/10/06 02:26:23;;;;;;;4.73;4.30;;;;;;;;;;5094643;28;20197;-80
2021/10/06 02:28:50;;;;;;;5.20;3.80;;;;;;;;;;5094724;28;20199;-79
2021/10/06 02:31:18;;;;;;;4.53;3.80;;;;;;;;;;5094648;28;20887;-80
2021/10/06 02:33:46;;;;;;;5.70;4.53;;;;;;;;;;5094642;28;20196;-80
2021/10/06 02:36:13;;;;;;;4.87;4.40;;;;;;;;;;5094563;28;20296;-80
2021/10/06 02:38:40;;;;;;;6.07;4.10;;;;;;;;;;5094673;28;20200;-80
2021/10/06 02:41:07;;;;;;;4.50;4.10;;;;;;;;;;5094580;28;20691;-79
2021/10/06 02:43:34;;;;;;;6.00;4.50;;;;;;;;;;5094068;28;20589;-80
2021/10/06 02:46:02;;;;;;;6.10;4.57;;;;;;;;;;5094266;28;20192;-79
2021/10/06 02:48:30;;;;;;;5.47;4.97;;;;;;;;;;5094508;28;20228;-80
2021/10/06 02:50:58;;;;;;;5.13;4.33;;;;;;;;;;5094346;28;20200;-79
2021/10/06 02:53:25;;;;;;;7.83;4.97;;;;;;;;;;5094352;28;20630;-79
2021/10/06 02:55:52;;;;;;;4.90;4.40;;;;;;;;;;5093751;28;20283;-80
2021/10/06 02:58:19;;;;;;;6.37;4.97;;;;;;;;;;5094319;28;20566;-80
2021/10/06 03:00:46;;;;;;;13.13;7.47;;;;;;;;;;5094341;28;20196;-80
2021/10/06 03:03:15;;;;;;;6.63;5.50;;;;;;;;;;5093926;28;20265;-80
2021/10/06 03:05:43;;;;;;;12.60;5.30;;;;;;;;;;5094257;28;20633;-79
2021/10/06 03:08:10;;;;;;;11.40;5.83;;;;;;;;;;5094096;28;20203;-80
2021/10/06 03:10:38;;;;;;;5.63;5.00;;;;;;;;;;5093663;28;20204;-80
2021/10/06 03:13:05;;;;;;;8.77;4.80;;;;;;;;;;5094014;28;20196;-79
2021/10/06 03:15:32;;;;;;;7.07;4.47;;;;;;;;;;5093606;28;20201;-80
2021/10/06 03:17:59;;;;;;;7.10;4.50;;;;;;;;;;5094137;28;20610;-80
2021/10/06 03:20:27;;;;;;;6.50;5.90;;;;;;;;;;5093737;28;20283;-80
2021/10/06 03:22:55;;;;;;;9.20;8.17;;;;;;;;;;5093703;28;20586;-79
2021/10/06 03:25:23;;;;;;;7.00;6.30;;;;;;;;;;5093367;28;20220;-80
2021/10/06 03:27:50;;;;;;;6.87;5.80;;;;;;;;;;5092121;28;20287;-80
2021/10/06 03:30:17;;;;;;;7.93;5.93;;;;;;;;;;5086912;28;20234;-79
2021/10/06 03:32:44;;;;;;;8.57;6.27;;;;;;;;;;5075483;28;20212;-79
2021/10/06 03:35:11;;;;;;;11.97;6.30;;;;;;;;;;5073389;28;20232;-80
2021/10/06 03:37:38;;;;;;;8.00;5.10;;;;;;;;;;5072985;28;20319;-78
2021/10/06 03:40:10;;;;;;;13.80;11.13;;;;;;;;;;5088584;28;20208;-79
2021/10/06 03:42:39;;;;;;;16.43;13.20;;;;;;;;;;5092801;28;20319;-80
2021/10/06 03:45:09;;;;;;;18.13;12.80;;;;;;;;;;5093378;28;20222;-79
2021/10/06 03:47:36;;;;;;;14.50;11.07;;;;;;;;;;5091991;28;20203;-79
2021/10/06 03:50:04;;;;;;;13.37;8.97;;;;;;;;;;5092202;28;20214;-79
2021/10/06 03:52:31;;;;;;;16.63;9.77;;;;;;;;;;5091963;28;20603;-79
2021/10/06 03:54:58;;;;;;;9.00;8.17;;;;;;;;;;5091887;28;20284;-79
2021/10/06 03:57:27;;;;;;;10.00;7.70;;;;;;;;;;5091974;28;20622;-79
2021/10/06 03:59:55;;;;;;;9.33;7.10;;;;;;;;;;5091749;28;20203;-79
2021/10/06 04:02:22;;;;;;;7.70;6.00;;;;;;;;;;5090417;28;20249;-79
2021/10/06 04:04:50;;;;;;;6.03;5.10;;;;;;;;;;5090429;28;20216;-81
2021/10/06 04:07:17;;;;;;;6.70;4.37;;;;;;;;;;5091473;28;20295;-80
2021/10/06 04:09:44;;;;;;;11.03;5.20;;;;;;;;;;5091564;28;20200;-81
2021/10/06 04:12:11;;;;;;;8.00;5.90;;;;;;;;;;5091665;28;20198;-81
2021/10/06 04:14:40;;;;;;;11.93;7.53;;;;;;;;;;5091510;28;20231;-81
2021/10/06 04:17:07;;;;;;;11.63;6.83;;;;;;;;;;5091232;28;20196;-80
2021/10/06 04:19:34;;;;;;;8.13;6.07;;;;;;;;;;5090303;28;20232;-80
2021/10/06 04:22:01;;;;;;;6.67;5.30;;;;;;;;;;5090112;28;20204;-80
2021/10/06 04:24:29;;;;;;;7.73;6.30;;;;;;;;;;5090907;28;20315;-80
2021/10/06 04:26:56;;;;;;;8.53;6.90;;;;;;;;;;5091760;28;20279;-80
2021/10/06 04:29:23;;;;;;;10.77;5.87;;;;;;;;;;5091065;28;20283;-80
2021/10/06 04:31:52;;;;;;;6.57;5.50;;;;;;;;;;5091343;28;20196;-79
2021/10/06 04:34:19;;;;;;;9.80;7.33;;;;;;;;;;5091199;28;20280;-80
2021/10/06 04:36:46;;;;;;;10.60;6.30;;;;;;;;;;5091350;28;20678;-80
2021/10/06 04:39:13;;;;;;;11.13;6.63;;;;;;;;;;5091083;28;20344;-80
2021/10/06 04:41:41;;;;;;;12.77;6.37;;;;;;;;;;5090895;28;20192;-80
2021/10/06 04:44:08;;;;;;;18.83;5.27;;;;;;;;;;5090739;28;20327;-80
2021/10/06 04:46:35;;;;;;;12.17;5.30;;;;;;;;;;5092290;28;20243;-79
2021/10/06 04:49:04;;;;;;;7.30;4.80;;;;;;;;;;5092308;28;20224;-79
2021/10/06 04:51:31;;;;;;;5.33;4.47;;;;;;;;;;5092039;28;20236;-80
2021/10/06 04:53:59;;;;;;;11.47;10.30;;;;;;;;;;5091728;28;20195;-79
2021/10/06 04:56:26;;;;;;;10.90;8.13;;;;;;;;;;5092070;28;20203;-80
2021/10/06 04:58:53;;;;;;;12.70;9.87;;;;;;;;;;5092332;28;20287;-80
2021/10/06 05:01:20;;;;;;;14.47;9.30;;;;;;;;;;5090857;28;20202;-80
2021/10/06 05:03:47;;;;;;;15.30;13.80;;;;;;;;;;5091949;28;20671;-80
2021/10/06 05:06:16;;;;;;;15.70;8.33;;;;;;;;;;5092178;28;20211;-80
2021/10/06 05:08:45;;;;;;;11.77;7.83;;;;;;;;;;5091975;28;20218;-80
2021/10/06 05:11:12;;;;;;;11.67;6.53;;;;;;;;;;5091972;28;20196;-80
2021/10/06 05:13:40;;;;;;;13.33;10.77;;;;;;;;;;5092244;28;20207;-80
2021/10/06 05:16:07;;;;;;;10.73;9.63;;;;;;;;;;5092139;28;20192;-80
2021/10/06 05:18:34;;;;;;;11.33;8.20;;;;;;;;;;5092280;28;20224;-80
2021/10/06 05:21:01;;;;;;;133.20;79.17;;;;;;;;;;5091765;28;20279;-80
2021/10/06 05:23:30;;;;;;;15.60;10.13;;;;;;;;;;5091862;28;20239;-80
2021/10/06 05:25:57;;;;;;;19.17;12.57;;;;;;;;;;5091898;28;20215;-80
2021/10/06 05:28:24;;;;;;;19.87;13.80;;;;;;;;;;5091877;28;20198;-80
2021/10/06 05:30:52;;;;;;;13.33;11.63;;;;;;;;;;5091344;28;20196;-80
2021/10/06 05:33:19;;;;;;;12.43;9.83;;;;;;;;;;5091849;28;20227;-80
2021/10/06 05:35:46;;;;;;;10.60;9.50;;;;;;;;;;5091673;28;20188;-80
2021/10/06 05:38:13;;;;;;;15.20;11.23;;;;;;;;;;5092029;28;20288;-80
2021/10/06 05:40:42;;;;;;;14.33;10.67;;;;;;;;;;5091434;28;20204;-80
2021/10/06 05:43:11;;;;;;;11.27;8.60;;;;;;;;;;5091745;28;20258;-80
2021/10/06 05:45:39;;;;;;;11.03;8.83;;;;;;;;;;5091764;28;20220;-80
2021/10/06 05:48:07;;;;;;;12.07;9.93;;;;;;;;;;5091976;28;20192;-80
2021/10/06 05:50:35;;;;;;;17.23;10.90;;;;;;;;;;5091235;28;20665;-80
2021/10/06 05:53:03;;;;;;;17.17;12.50;;;;;;;;;;5091570;28;20200;-80
2021/10/06 05:55:30;;;;;;;12.30;8.37;;;;;;;;;;5094267;28;20308;-80
2021/10/06 05:57:59;;;;;;;10.93;6.00;;;;;;;;;;5095413;28;20198;-80
2021/10/06 06:00:26;;;;;;;12.73;7.30;;;;;;;;;;5095078;28;20279;-80
2021/10/06 06:02:54;;;;;;;9.20;7.57;;;;;;;;;;5095313;28;20204;-80
2021/10/06 06:05:21;;;;;;;9.63;5.00;;;;;;;;;;5095405;28;20347;-80
2021/10/06 06:07:48;;;;;;;9.10;5.53;;;;;;;;;;5095301;28;20199;-81
2021/10/06 06:10:16;;;;;;;12.57;5.57;;;;;;;;;;5094887;28;20235;-80
2021/10/06 06:12:44;;;;;;;8.90;5.60;;;;;;;;;;5095128;28;20697;-80
2021/10/06 06:15:13;;;;;;;8.70;5.20;;;;;;;;;;5094959;28;20251;-80
2021/10/06 06:17:40;;;;;;;8.63;4.63;;;;;;;;;;5095143;28;20199;-80
2021/10/06 06:20:10;;;;;;;9.53;5.40;;;;;;;;;;5094852;28;20234;-80
2021/10/06 06:22:37;;;;;;;8.70;6.70;;;;;;;;;;5094847;28;20211;-80
2021/10/06 06:25:05;;;;;;;10.33;5.20;;;;;;;;;;5094956;28;20226;-80
2021/10/06 06:27:32;;;;;;;4.77;4.03;;;;;;;;;;5095249;28;20203;-80
2021/10/06 06:30:00;;;;;;;4.63;3.57;;;;;;;;;;5095012;28;20200;-80
2021/10/06 06:32:28;;;;;;;4.53;3.97;;;;;;;;;;5094620;28;20192;-80
2021/10/06 06:34:55;;;;;;;5.77;3.60;;;;;;;;;;5094504;28;20584;-80
2021/10/06 06:37:23;;;;;;;6.20;4.23;;;;;;;;;;5095023;28;20584;-80
2021/10/06 06:39:50;;;;;;;4.43;3.33;;;;;;;;;;5094539;28;20201;-80
2021/10/06 06:42:17;;;;;;;5.40;4.23;;;;;;;;;;5093455;28;20281;-80
2021/10/06 06:44:44;;;;;;;4.50;4.10;;;;;;;;;;5092718;28;20723;-80
2021/10/06 06:47:11;;;;;;;4.60;3.63;;;;;;;;;;5094420;28;20321;-80
2021/10/06 06:49:40;;;;;;;4.47;3.33;;;;;;;;;;5094104;28;20744;-80
2021/10/06 06:52:07;;;;;;;4.17;3.70;;;;;;;;;;5094326;28;20195;-80
2021/10/06 06:54:34;;;;;;;5.87;3.17;;;;;;;;;;5094526;28;20191;-80
2021/10/06 06:57:02;;;;;;;3.83;3.37;;;;;;;;;;5094289;28;20204;-80
2021/10/06 06:59:29;;;;;;;5.03;3.00;;;;;;;;;;5094127;28;20285;-81
2021/10/06 07:01:57;;;;;;;17.60;4.23;;;;;;;;;;5094311;28;20196;-85
2021/10/06 07:04:25;;;;;;;4.50;3.67;;;;;;;;;;5094118;28;20684;-80
2021/10/06 07:06:56;;;;;;;9.47;8.50;;;;;;;;;;5093595;28;20207;-80
2021/10/06 07:09:24;;;;;;;11.20;4.53;;;;;;;;;;5093999;28;20226;-80
2021/10/06 07:11:52;;;;;;;3.33;3.10;;;;;;;;;;5093921;28;20716;-80
2021/10/06 07:14:20;;;;;;;12.47;9.13;;;;;;;;;;5093875;28;20200;-80
2021/10/06 07:16:47;;;;;;;14.30;8.20;;;;;;;;;;5094000;28;20196;-80
2021/10/06 07:19:14;;;;;;;15.17;11.67;;;;;;;;;;5094043;28;20226;-80
2021/10/06 07:21:44;;;;;;;8.73;6.60;;;;;;;;;;5093901;28;20664;-80
2021/10/06 07:24:14;;;;;;;17.87;15.67;;;;;;;;;;5093833;28;20751;-80
2021/10/06 07:26:41;;;;;;;15.07;10.97;;;;;;;;;;5094127;28;20207;-80
2021/10/06 07:29:09;;;;;;;6.93;5.80;;;;;;;;;;5093470;28;20196;-80
2021/10/06 07:31:37;;;;;;;53.00;34.27;;;;;;;;;;5093487;28;20196;-81
2021/10/06 07:34:04;;;;;;;21.13;11.27;;;;;;;;;;5093325;28;20291;-80
2021/10/06 07:36:32;;;;;;;8.50;6.00;;;;;;;;;;5093734;28;20200;-80
2021/10/06 07:38:59;;;;;;;16.43;10.90;;;;;;;;;;5093426;28;20203;-80
2021/10/06 07:41:28;;;;;;;17.07;11.83;;;;;;;;;;5093436;28;20224;-81
2021/10/06 07:43:55;;;;;;;17.90;12.87;;;;;;;;;;5093062;28;20604;-80
2021/10/06 07:46:23;;;;;;;7.80;3.90;;;;;;;;;;5093207;28;20226;-80
2021/10/06 07:48:50;;;;;;;14.03;8.10;;;;;;;;;;5093703;28;20200;-81
2021/10/06 07:51:18;;;;;;;12.40;9.17;;;;;;;;;;5093279;28;20551;-80
2021/10/06 07:53:45;;;;;;;3.70;3.40;;;;;;;;;;5093603;28;20225;-80
2021/10/06 07:56:12;;;;;;;5.13;3.73;;;;;;;;;;5092971;28;20200;-80
2021/10/06 07:58:41;;;;;;;3.57;3.27;;;;;;;;;;5093372;28;20196;-80
2021/10/06 08:01:09;;;;;;;5.23;4.13;;;;;;;;;;5092985;28;20227;-81
2021/10/06 08:03:37;;;;;;;3.53;3.10;;;;;;;;;;5092898;28;20299;-80
2021/10/06 08:06:04;;;;;;;4.63;3.80;;;;;;;;;;5092763;28;20259;-80
2021/10/06 08:08:31;;;;;;;6.03;3.73;;;;;;;;;;5093112;28;20681;-81
2021/10/06 08:11:00;;;;;;;3.60;3.13;;;;;;;;;;5092949;28;20196;-80
2021/10/06 08:13:28;;;;;;;4.33;3.50;;;;;;;;;;5092769;28;20287;-81
2021/10/06 08:15:57;;;;;;;5.77;3.17;;;;;;;;;;5092606;28;20200;-80
2021/10/06 08:18:25;;;;;;;4.83;3.10;;;;;;;;;;5092793;28;20192;-81
2021/10/06 08:20:53;;;;;;;4.57;3.37;;;;;;;;;;5092576;28;20197;-81
2021/10/06 08:23:21;;;;;;;3.40;3.10;;;;;;;;;;5092759;28;20193;-80
2021/10/06 08:25:49;;;;;;;3.17;2.63;;;;;;;;;;5092592;28;20718;-81
2021/10/06 08:28:16;;;;;;;6.17;5.20;;;;;;;;;;5092602;28;20297;-81
2021/10/06 08:30:44;;;;;;;4.63;3.07;;;;;;;;;;5092412;28;20200;-81
2021/10/06 08:33:13;;;;;;;6.77;3.10;;;;;;;;;;5092792;28;20191;-80
2021/10/06 08:35:40;;;;;;;4.77;3.17;;;;;;;;;;5092396;28;20299;-80
2021/10/06 08:38:08;;;;;;;6.10;2.80;;;;;;;;;;5092737;28;20202;-80
2021/10/06 08:40:36;;;;;;;4.87;2.87;;;;;;;;;;5092288;28;20206;-81
2021/10/06 08:43:04;;;;;;;8.73;2.93;;;;;;;;;;5092087;28;20810;-81
2021/10/06 08:45:33;;;;;;;5.50;2.40;;;;;;;;;;5091753;28;20642;-81
2021/10/06 08:48:02;;;;;;;11.60;4.03;;;;;;;;;;5092638;28;20214;-81
2021/10/06 08:50:31;;;;;;;10.53;6.57;;;;;;;;;;5092378;28;20580;-81
2021/10/06 08:52:58;;;;;;;5.43;3.13;;;;;;;;;;5092277;28;20209;-81
2021/10/06 08:55:28;;;;;;;5.87;3.70;;;;;;;;;;5092296;28;20278;-81
2021/10/06 08:57:57;;;;;;;3.00;2.70;;;;;;;;;;5092119;28;20247;-80
2021/10/06 09:00:24;;;;;;;3.83;2.73;;;;;;;;;;5091920;28;20201;-81
2021/10/06 09:02:51;;;;;;;4.60;2.33;;;;;;;;;;5092164;28;20192;-81
2021/10/06 09:05:22;;;;;;;5.20;3.27;;;;;;;;;;5091766;28;20227;-81
2021/10/06 09:07:59;;;;;;;5.43;3.53;;;;;;;;;;5092444;28;20187;-81
2021/10/06 09:10:27;;;;;;;5.00;2.60;;;;;;;;;;5091876;28;20194;-81
2021/10/06 09:12:56;;;;;;;4.77;2.70;;;;;;;;;;5092081;28;20200;-81
2021/10/06 09:15:23;;;;;;;6.23;3.23;;;;;;;;;;5092173;28;20645;-81
2021/10/06 09:17:57;;;;;;;4.93;2.67;;;;;;;;;;5092074;28;20222;-82
2021/10/06 09:20:34;;;;;;;3.43;2.90;;;;;;;;;;5092153;28;20218;-81
2021/10/06 09:23:04;;;;;;;5.03;4.63;;;;;;;;;;5092286;28;20188;-81
2021/10/06 09:25:37;;;;;;;3.90;2.13;;;;;;;;;;5092159;28;20219;-81
2021/10/06 09:28:08;;;;;;;3.17;2.03;;;;;;;;;;5092263;28;20185;-81
2021/10/06 09:30:35;;;;;;;4.93;2.60;;;;;;;;;;5094203;28;20199;-81
2021/10/06 09:33:04;;;;;;;4.23;2.00;;;;;;;;;;5096313;28;20223;-81
2021/10/06 09:35:31;;;;;;;4.30;2.07;;;;;;;;;;5095990;28;20196;-81
2021/10/06 09:37:59;;;;;;;5.87;1.93;;;;;;;;;;5095711;28;20193;-81
2021/10/06 09:40:29;;;;;;;2.00;1.60;;;;;;;;;;5095636;28;20192;-82
2021/10/06 09:42:58;;;;;;;3.03;2.10;;;;;;;;;;5095743;28;20224;-82
2021/10/06 09:45:28;;;;;;;3.53;2.00;;;;;;;;;;5095714;28;20220;-81
2021/10/06 09:48:05;;;;;;;2.17;1.83;;;;;;;;;;5095665;28;20196;-81
2021/10/06 09:50:34;;;;;;;4.90;2.30;;;;;;;;;;5095454;28;20588;-81
2021/10/06 09:53:12;;;;;;;7.30;2.70;;;;;;;;;;5095989;28;20247;-81
2021/10/06 09:55:42;;;;;;;3.07;1.90;;;;;;;;;;5095055;28;20241;-81
2021/10/06 09:58:10;;;;;;;5.17;2.30;;;;;;;;;;5095877;28;20303;-82
2021/10/06 10:00:38;;;;;;;3.83;2.40;;;;;;;;;;5095318;28;20195;-81
2021/10/06 10:03:06;;;;;;;5.10;2.03;;;;;;;;;;5095996;28;20206;-82
2021/10/06 10:05:36;;;;;;;3.80;2.43;;;;;;;;;;5095409;28;20223;-81
2021/10/06 10:08:04;;;;;;;3.03;2.30;;;;;;;;;;5095165;28;20595;-81
2021/10/06 10:10:34;;;;;;;4.43;1.87;;;;;;;;;;5095093;28;20203;-81
2021/10/06 10:13:03;;;;;;;3.03;2.37;;;;;;;;;;5095301;28;20200;-81
2021/10/06 10:15:31;;;;;;;2.63;2.40;;;;;;;;;;5095008;28;20197;-82
2021/10/06 10:18:01;;;;;;;8.17;3.20;;;;;;;;;;5094937;28;20197;-82
2021/10/06 10:20:31;;;;;;;3.13;2.33;;;;;;;;;;5094896;28;20206;-82
2021/10/06 10:23:01;;;;;;;3.37;2.10;;;;;;;;;;5095499;28;20203;-82
2021/10/06 10:25:30;;;;;;;3.07;2.60;;;;;;;;;;5094760;28;20279;-81
2021/10/06 10:28:02;;;;;;;3.40;1.77;;;;;;;;;;5095006;28;20200;-82
2021/10/06 10:30:30;;;;;;;4.07;2.13;;;;;;;;;;5094859;28;20196;-82
2021/10/06 10:32:58;;;;;;;3.40;1.97;;;;;;;;;;5094909;28;20201;-82
2021/10/06 10:35:36;;;;;;;3.00;1.83;;;;;;;;;;5094586;28;20226;-81
2021/10/06 10:38:09;;;;;;;4.47;1.90;;;;;;;;;;5094953;28;20274;-81
2021/10/06 10:40:42;;;;;;;2.60;1.97;;;;;;;;;;5093825;28;20184;-82
2021/10/06 10:43:12;;;;;;;2.60;2.40;;;;;;;;;;5094191;28;20236;-81
2021/10/06 10:45:42;;;;;;;3.30;1.80;;;;;;;;;;5094698;28;20234;-81
2021/10/06 10:48:11;;;;;;;4.77;2.27;;;;;;;;;;5094639;28;20252;-82
2021/10/06 10:50:40;;;;;;;5.03;2.63;;;;;;;;;;5094298;28;20287;-82
2021/10/06 10:53:08;;;;;;;3.00;2.67;;;;;;;;;;5094504;28;20196;-81
2021/10/06 10:55:45;;;;;;;3.17;2.13;;;;;;;;;;5094169;28;20326;-81
2021/10/06 10:58:40;;;;;;;9.30;3.17;;;;;;;;;;5094468;28;20192;-81
2021/10/06 11:01:09;;;;;;;3.20;2.07;;;;;;;;;;5080335;28;20195;-82
2021/10/06 11:04:10;;;;;;;7.70;2.07;;;;;;;;;;5094455;28;20559;-82
2021/10/06 11:06:38;;;;;;;13.23;11.83;;;;;;;;;;5093909;28;20578;-82
2021/10/06 11:09:39;;;;;;;9.30;5.23;;;;;;;;;;5093822;28;20289;-81
2021/10/06 11:12:28;;;;;;;9.43;6.17;;;;;;;;;;5094278;28;20199;-81
2021/10/06 11:15:33;;;;;;;4.03;3.10;;;;;;;;;;5089364;28;20239;-81
2021/10/06 11:18:29;;;;;;;4.57;2.83;;;;;;;;;;5093816;28;20192;-81
2021/10/06 11:21:05;;;;;;;2.57;1.83;;;;;;;;;;5093728;28;20185;-82
2021/10/06 11:23:43;;;;;;;3.43;2.43;;;;;;;;;;5094320;28;20200;-82
2021/10/06 11:26:12;;;;;;;6.07;3.27;;;;;;;;;;5093774;28;20208;-82
2021/10/06 11:28:41;;;;;;;4.97;2.83;;;;;;;;;;5093545;28;20207;-81
2021/10/06 11:31:11;;;;;;;4.50;2.77;;;;;;;;;;5093838;28;20203;-82
2021/10/06 11:33:38;;;;;;;8.77;6.30;;;;;;;;;;5093807;28;20208;-81
2021/10/06 11:36:13;;;;;;;10.80;3.67;;;;;;;;;;5093492;28;20233;-81
2021/10/06 11:38:42;;;;;;;17.90;11.30;;;;;;;;;;5093596;28;20196;-81
2021/10/06 11:41:10;;;;;;;2.83;2.63;;;;;;;;;;5093756;28;20196;-81
2021/10/06 11:43:41;;;;;;;3.20;2.17;;;;;;;;;;5093440;28;20228;-82
2021/10/06 11:46:23;;;;;;;4.70;3.57;;;;;;;;;;5093396;28;20228;-82
2021/10/06 11:48:52;;;;;;;3.87;3.57;;;;;;;;;;5093428;28;20188;-82
2021/10/06 11:51:19;;;;;;;5.13;2.60;;;;;;;;;;5093270;28;20281;-81
2021/10/06 11:53:48;;;;;;;5.33;2.80;;;;;;;;;;5093272;28;20286;-82
2021/10/06 11:56:26;;;;;;;6.03;3.27;;;;;;;;;;5092885;28;20684;-81
2021/10/06 11:58:54;;;;;;;5.37;2.80;;;;;;;;;;5093504;28;20200;-81
2021/10/06 12:01:22;;;;;;;3.87;3.27;;;;;;;;;;5093428;28;20196;-81
2021/10/06 12:03:50;;;;;;;3.40;3.00;;;;;;;;;;5092773;28;20192;-82
2021/10/06 12:06:21;;;;;;;3.37;2.97;;;;;;;;;;5092792;28;20734;-81
2021/10/06 12:08:49;;;;;;;3.70;3.40;;;;;;;;;;5092947;28;20645;-81
2021/10/06 12:11:16;;;;;;;4.17;2.40;;;;;;;;;;5092888;28;20204;-81
2021/10/06 12:13:43;;;;;;;2.40;2.20;;;;;;;;;;5092947;28;20192;-81
2021/10/06 12:16:26;;;;;;;5.93;2.47;;;;;;;;;;5092509;28;20192;-82
2021/10/06 12:18:55;;;;;;;3.23;2.60;;;;;;;;;;5092774;28;20195;-82
2021/10/06 12:21:22;;;;;;;9.63;3.53;;;;;;;;;;5093018;28;20287;-82
2021/10/06 12:23:50;;;;;;;5.50;2.60;;;;;;;;;;5092444;28;20291;-81
2021/10/06 12:26:18;;;;;;;3.17;2.83;;;;;;;;;;5092529;28;20226;-82
2021/10/06 12:28:57;;;;;;;5.97;3.43;;;;;;;;;;5092679;28;20239;-81
2021/10/06 12:31:28;;;;;;;3.90;3.03;;;;;;;;;;5092573;28;20222;-81
2021/10/06 12:34:10;;;;;;;3.70;3.20;;;;;;;;;;5092525;28;20741;-81
2021/10/06 12:36:38;;;;;;;4.03;3.63;;;;;;;;;;5092400;28;20191;-82
2021/10/06 12:39:13;;;;;;;3.73;2.83;;;;;;;;;;5092514;28;20208;-81
2021/10/06 12:41:42;;;;;;;7.43;6.73;;;;;;;;;;5092531;28;20648;-83
2021/10/06 12:44:21;;;;;;;5.47;4.00;;;;;;;;;;5092471;28;20281;-81
2021/10/06 12:46:50;;;;;;;7.17;4.00;;;;;;;;;;5092462;28;20204;-82
2021/10/06 12:49:18;;;;;;;3.57;2.80;;;;;;;;;;5092283;28;20286;-82
2021/10/06 12:51:54;;;;;;;3.40;2.90;;;;;;;;;;5092759;28;20192;-82
2021/10/06 12:54:24;;;;;;;4.53;2.87;;;;;;;;;;5092573;28;20572;-82
2021/10/06 12:56:53;;;;;;;6.87;2.77;;;;;;;;;;5092057;28;20196;-82
2021/10/06 12:59:29;;;;;;;6.83;3.10;;;;;;;;;;5091980;28;20754;-82
2021/10/06 13:01:58;;;;;;;4.43;3.30;;;;;;;;;;5092652;28;20234;-82
2021/10/06 13:04:25;;;;;;;4.40;2.87;;;;;;;;;;5091075;28;20207;-82
2021/10/06 13:06:53;;;;;;;7.70;2.57;;;;;;;;;;5092162;28;20227;-83
2021/10/06 13:09:21;;;;;;;4.07;2.53;;;;;;;;;;5092380;28;20196;-82
2021/10/06 13:11:50;;;;;;;7.13;2.77;;;;;;;;;;5092367;28;20753;-82
2021/10/06 13:14:17;;;;;;;8.67;2.73;;;;;;;;;;5092361;28;20569;-82
2021/10/06 13:16:45;;;;;;;5.70;2.73;;;;;;;;;;5092201;28;20199;-82
2021/10/06 13:19:14;;;;;;;4.57;2.97;;;;;;;;;;5092079;28;20196;-82
2021/10/06 13:21:43;;;;;;;4.13;2.77;;;;;;;;;;5092437;28;20200;-82
2021/10/06 13:24:10;;;;;;;8.60;3.67;;;;;;;;;;5091925;28;20570;-81
2021/10/06 13:26:38;;;;;;;2.73;2.50;;;;;;;;;;5091714;28;20216;-82
2021/10/06 13:29:06;;;;;;;5.03;2.57;;;;;;;;;;5092000;28;20279;-82
2021/10/06 13:31:33;;;;;;;3.50;3.20;;;;;;;;;;5092267;28;20201;-82
2021/10/06 13:34:01;;;;;;;5.33;3.20;;;;;;;;;;5091634;28;20200;-81
2021/10/06 13:36:29;;;;;;;6.33;3.23;;;;;;;;;;5092208;28;20279;-82
2021/10/06 13:38:57;;;;;;;2.67;2.47;;;;;;;;;;5091395;28;20207;-82
2021/10/06 13:41:24;;;;;;;4.30;2.67;;;;;;;;;;5091842;28;20207;-81
2021/10/06 13:43:52;;;;;;;3.53;2.60;;;;;;;;;;5091496;28;20246;-81
2021/10/06 13:46:19;;;;;;;7.13;2.60;;;;;;;;;;5091797;28;20664;-82
2021/10/06 13:48:48;;;;;;;2.60;2.40;;;;;;;;;;5091334;28;20203;-82
2021/10/06 13:51:17;;;;;;;5.33;2.90;;;;;;;;;;5091957;28;20192;-82
2021/10/06 13:53:47;;;;;;;3.13;2.40;;;;;;;;;;5091645;28;20227;-82
2021/10/06 13:56:14;;;;;;;3.13;2.03;;;;;;;;;;5091662;28;20647;-81
2021/10/06 13:58:42;;;;;;;8.20;4.60;;;;;;;;;;5091840;28;20207;-81
2021/10/06 14:01:09;;;;;;;4.20;2.60;;;;;;;;;;5091492;28;20692;-81
2021/10/06 14:03:36;;;;;;;4.53;2.87;;;;;;;;;;5091643;28;20196;-82
2021/10/06 14:06:04;;;;;;;4.17;2.00;;;;;;;;;;5091181;28;20676;-82
2021/10/06 14:08:32;;;;;;;7.50;2.93;;;;;;;;;;5091424;28;20311;-82
2021/10/06 14:11:00;;;;;;;5.17;2.50;;;;;;;;;;5091345;28;20200;-82
2021/10/06 14:13:28;;;;;;;7.87;2.70;;;;;;;;;;5091487;28;20197;-82
2021/10/06 14:15:55;;;;;;;2.43;2.23;;;;;;;;;;5092828;28;20275;-82
2021/10/06 14:18:23;;;;;;;3.07;2.30;;;;;;;;;;5095185;28;20188;-81
2021/10/06 14:20:52;;;;;;;2.20;1.73;;;;;;;;;;5094950;28;20269;-81
2021/10/06 14:23:19;;;;;;;6.87;2.97;;;;;;;;;;5095198;28;20223;-82
2021/10/06 14:25:46;;;;;;;5.87;2.37;;;;;;;;;;5094917;28;20744;-81
2021/10/06 14:28:15;;;;;;;2.80;2.60;;;;;;;;;;5094892;28;20270;-82
2021/10/06 14:30:42;;;;;;;3.53;2.10;;;;;;;;;;5094504;28;20192;-81
2021/10/06 14:33:10;;;;;;;3.10;2.53;;;;;;;;;;5095251;28;20196;-81
2021/10/06 14:35:37;;;;;;;8.07;2.37;;;;;;;;;;5094697;28;20720;-81
2021/10/06 14:38:04;;;;;;;3.83;2.10;;;;;;;;;;5094913;28;20568;-82
2021/10/06 14:40:32;;;;;;;4.30;2.07;;;;;;;;;;5094704;28;20203;-81
2021/10/06 14:42:59;;;;;;;8.33;2.03;;;;;;;;;;5094522;28;20247;-81
2021/10/06 14:45:28;;;;;;;3.83;2.10;;;;;;;;;;5094742;28;20207;-82
2021/10/06 14:47:56;;;;;;;1.60;1.50;;;;;;;;;;5094350;28;20577;-81